createdAt,value
2018-06-04T00:02:27.985Z,56.98
2018-06-04T00:04:56.179Z,57.15
2018-06-04T00:07:24.340Z,57.13
2018-06-04T00:09:52.607Z,57.28
2018-06-04T00:12:20.762Z,57.80
2018-06-04T00:14:48.976Z,58.62
2018-06-04T00:17:17.199Z,59.52
2018-06-04T00:19:45.410Z,61.41
2018-06-04T00:22:13.583Z,61.74
2018-06-04T00:24:41.766Z,62.42
2018-06-04T00:27:09.901Z,63.84
2018-06-04T00:29:38.248Z,63.33
2018-06-04T00:32:07.070Z,64.68
2018-06-04T00:34:35.211Z,64.69
2018-06-04T00:37:03.412Z,64.35
2018-06-04T00:39:31.572Z,65.01
2018-06-04T00:41:59.791Z,66.66
2018-06-04T00:44:27.956Z,67.99
2018-06-04T00:46:56.212Z,67.83
2018-06-04T00:49:24.380Z,67.18
2018-06-04T00:51:52.601Z,67.84
2018-06-04T00:54:20.750Z,67.73
2018-06-04T00:56:49.027Z,68.90
2018-06-04T00:59:17.230Z,69.69
2018-06-04T01:01:45.559Z,70.34
2018-06-04T01:04:13.622Z,70.14
2018-06-04T01:06:41.906Z,71.76
2018-06-04T01:09:10.741Z,72.08
2018-06-04T01:11:39.015Z,71.46
2018-06-04T01:14:07.193Z,71.62
2018-06-04T01:16:35.344Z,71.72
2018-06-04T01:19:03.507Z,71.92
2018-06-04T01:21:31.893Z,71.95
2018-06-04T01:24:00.009Z,72.71
2018-06-04T01:26:28.190Z,73.34
2018-06-04T01:28:56.396Z,73.41
2018-06-04T01:31:24.553Z,72.87
2018-06-04T01:33:52.653Z,72.11
2018-06-04T01:36:20.797Z,73.03
2018-06-04T01:38:49.009Z,73.55
2018-06-04T01:41:17.158Z,72.63
2018-06-04T01:43:45.342Z,74.10
2018-06-04T01:46:14.124Z,74.66
2018-06-04T01:48:42.281Z,74.86
2018-06-04T01:51:10.346Z,74.95
2018-06-04T01:53:38.604Z,75.51
2018-06-04T01:56:06.775Z,74.99
2018-06-04T01:58:34.919Z,75.54
2018-06-04T02:01:03.031Z,74.66
2018-06-04T02:03:31.218Z,75.03
2018-06-04T02:05:59.491Z,76.26
2018-06-04T02:08:27.605Z,77.42
2018-06-04T02:10:55.872Z,76.63
2018-06-04T02:13:24.094Z,77.78
2018-06-04T02:15:52.277Z,77.70
2018-06-04T02:18:20.554Z,78.64
2018-06-04T02:20:48.984Z,78.16
2018-06-04T02:23:17.727Z,79.77
2018-06-04T02:25:45.820Z,79.71
2018-06-04T02:28:13.913Z,79.09
2018-06-04T02:30:42.035Z,79.26
2018-06-04T02:33:10.252Z,78.95
2018-06-04T02:35:38.494Z,78.50
2018-06-04T02:38:06.743Z,78.12
2018-06-04T02:40:34.894Z,78.11
2018-06-04T02:43:03.186Z,78.71
2018-06-04T02:45:31.494Z,78.18
2018-06-04T02:47:59.730Z,78.60
2018-06-04T02:50:28.067Z,79.96
2018-06-04T02:52:56.351Z,80.02
2018-06-04T02:55:24.520Z,79.82
2018-06-04T02:57:52.685Z,79.64
2018-06-04T03:00:21.886Z,80.32
2018-06-04T03:02:50.110Z,79.94
2018-06-04T03:05:19.232Z,79.38
2018-06-04T03:07:47.474Z,79.43
2018-06-04T03:10:15.719Z,81.51
2018-06-04T03:12:43.810Z,81.02
2018-06-04T03:15:11.943Z,81.58
2018-06-04T03:17:40.097Z,82.50
2018-06-04T03:20:08.304Z,82.90
2018-06-04T03:22:36.596Z,82.74
2018-06-04T03:25:04.821Z,82.92
2018-06-04T03:27:33.163Z,83.96
2018-06-04T03:30:01.505Z,83.92
2018-06-04T03:32:29.797Z,84.98
2018-06-04T03:34:58.090Z,84.66
2018-06-04T03:37:26.221Z,84.66
2018-06-04T03:39:54.403Z,83.07
2018-06-04T03:42:23.088Z,83.62
2018-06-04T03:44:51.255Z,83.76
2018-06-04T03:47:19.427Z,84.85
2018-06-04T03:49:47.566Z,84.00
2018-06-04T03:52:15.706Z,83.57
2018-06-04T03:54:43.909Z,83.08
2018-06-04T03:57:12.147Z,83.56
2018-06-04T03:59:40.290Z,83.56
2018-06-04T04:02:08.445Z,84.74
2018-06-04T04:04:36.659Z,84.02
2018-06-04T04:07:04.828Z,83.94
2018-06-04T04:09:33.230Z,84.31
2018-06-04T04:12:01.417Z,84.83
2018-06-04T04:14:29.736Z,83.89
2018-06-04T04:16:58.248Z,83.89
2018-06-04T04:19:26.803Z,83.72
2018-06-04T04:22:24.486Z,83.24
2018-06-04T04:24:52.768Z,83.27
2018-06-04T04:27:20.945Z,83.65
2018-06-04T04:29:49.341Z,84.15
2018-06-04T04:32:17.559Z,84.63
2018-06-04T04:34:45.937Z,84.92
2018-06-04T04:37:14.265Z,83.54
2018-06-04T04:39:42.447Z,82.17
2018-06-04T04:42:10.768Z,82.30
2018-06-04T04:44:38.999Z,82.64
2018-06-04T04:47:07.134Z,83.54
2018-06-04T04:49:35.435Z,83.00
2018-06-04T04:52:03.625Z,84.11
2018-06-04T04:54:31.839Z,84.20
2018-06-04T04:57:00.279Z,83.52
2018-06-04T04:59:29.220Z,82.81
2018-06-04T05:01:57.574Z,81.30
2018-06-04T05:04:25.920Z,80.57
2018-06-04T05:06:54.158Z,80.41
2018-06-04T05:09:22.641Z,82.05
2018-06-04T05:11:50.828Z,81.16
2018-06-04T05:14:18.993Z,81.58
2018-06-04T05:16:47.216Z,81.90
2018-06-04T05:19:15.423Z,81.57
2018-06-04T05:21:43.875Z,80.69
2018-06-04T05:24:12.182Z,78.15
2018-06-04T05:26:40.410Z,78.54
2018-06-04T05:29:08.595Z,79.22
2018-06-04T05:31:36.857Z,81.17
2018-06-04T05:34:05.051Z,79.13
2018-06-04T05:36:34.412Z,79.33
2018-06-04T05:39:03.804Z,77.30
2018-06-04T05:41:32.553Z,74.63
2018-06-04T05:44:00.843Z,69.14
2018-06-04T05:46:29.193Z,64.68
2018-06-04T05:48:57.579Z,60.06
2018-06-04T05:51:25.765Z,57.26
2018-06-04T05:53:54.193Z,57.01
2018-06-04T05:56:22.483Z,54.30
2018-06-04T05:58:50.665Z,54.70
2018-06-04T06:01:18.994Z,52.48
2018-06-04T06:03:47.330Z,53.01
2018-06-04T06:06:15.547Z,51.23
2018-06-04T06:08:44.061Z,51.39
2018-06-04T06:11:12.248Z,47.40
2018-06-04T06:13:40.429Z,50.61
2018-06-04T06:16:08.775Z,47.33
2018-06-04T06:18:37.670Z,46.59
2018-06-04T06:21:05.974Z,49.03
2018-06-04T06:23:34.277Z,48.79
2018-06-04T06:26:02.516Z,50.06
2018-06-04T06:28:30.669Z,50.07
2018-06-04T06:30:58.917Z,53.05
2018-06-04T06:33:27.079Z,48.44
2018-06-04T06:35:55.611Z,53.14
2018-06-04T06:38:23.779Z,53.12
2018-06-04T06:40:52.204Z,58.23
2018-06-04T06:43:20.444Z,55.64
2018-06-04T06:45:49.017Z,52.82
2018-06-04T06:48:17.449Z,51.18
2018-06-04T06:50:45.659Z,51.03
2018-06-04T06:53:13.840Z,49.76
2018-06-04T06:55:41.930Z,48.84
2018-06-04T06:58:10.312Z,50.40
2018-06-04T07:00:38.973Z,43.80
2018-06-04T07:03:07.322Z,44.02
2018-06-04T07:05:35.478Z,46.47
2018-06-04T07:08:03.650Z,44.52
2018-06-04T07:10:31.995Z,45.38
2018-06-04T07:13:00.146Z,46.14
2018-06-04T07:15:28.312Z,42.75
2018-06-04T07:17:56.593Z,45.75
2018-06-04T07:20:24.801Z,50.56
2018-06-04T07:22:53.079Z,52.70
2018-06-04T07:25:21.313Z,54.50
2018-06-04T07:27:49.602Z,57.85
2018-06-04T07:30:18.003Z,57.58
2018-06-04T07:32:46.327Z,60.26
2018-06-04T07:35:14.721Z,59.66
2018-06-04T07:37:43.446Z,59.85
2018-06-04T07:40:12.043Z,61.23
2018-06-04T07:42:40.382Z,60.87
2018-06-04T07:45:08.541Z,61.47
2018-06-04T07:47:36.749Z,60.34
2018-06-04T07:50:05.010Z,61.13
2018-06-04T07:52:33.613Z,59.84
2018-06-04T07:55:01.852Z,61.18
2018-06-04T07:57:30.059Z,61.36
2018-06-04T07:59:58.374Z,59.98
2018-06-04T08:02:26.543Z,58.38
2018-06-04T08:04:54.819Z,58.08
2018-06-04T08:07:23.056Z,57.73
2018-06-04T08:09:51.220Z,58.67
2018-06-04T08:12:19.357Z,57.40
2018-06-04T08:14:48.043Z,58.09
2018-06-04T08:17:16.342Z,58.50
2018-06-04T08:19:45.267Z,56.46
2018-06-04T08:22:13.469Z,56.73
2018-06-04T08:24:41.626Z,56.62
2018-06-04T08:27:09.806Z,57.11
2018-06-04T08:29:38.100Z,57.78
2018-06-04T08:32:06.313Z,59.47
2018-06-04T08:34:34.449Z,56.48
2018-06-04T08:37:02.654Z,57.98
2018-06-04T08:39:30.877Z,56.99
2018-06-04T08:41:59.283Z,57.07
2018-06-04T08:44:27.495Z,58.77
2018-06-04T08:46:55.657Z,57.73
2018-06-04T08:49:23.887Z,57.30
2018-06-04T08:51:52.029Z,56.98
2018-06-04T08:54:20.277Z,56.56
2018-06-04T08:56:49.162Z,54.68
2018-06-04T08:59:17.541Z,55.86
2018-06-04T09:01:45.728Z,57.46
2018-06-04T09:04:13.837Z,53.70
2018-06-04T09:06:42.094Z,55.98
2018-06-04T09:09:10.801Z,54.47
2018-06-04T09:11:39.031Z,57.39
2018-06-04T09:14:07.369Z,55.84
2018-06-04T09:16:35.583Z,54.68
2018-06-04T09:19:03.740Z,55.19
2018-06-04T09:21:32.085Z,54.89
2018-06-04T09:24:00.480Z,55.79
2018-06-04T09:26:28.667Z,55.90
2018-06-04T09:28:56.869Z,55.38
2018-06-04T09:31:25.138Z,55.67
2018-06-04T09:33:53.791Z,54.51
2018-06-04T09:36:21.932Z,54.41
2018-06-04T09:38:50.139Z,55.14
2018-06-04T09:41:18.407Z,54.94
2018-06-04T09:43:46.653Z,55.12
2018-06-04T09:46:14.918Z,54.04
2018-06-04T09:48:43.291Z,54.54
2018-06-04T09:51:11.531Z,52.19
2018-06-04T09:53:39.796Z,54.57
2018-06-04T09:56:08.055Z,53.32
2018-06-04T09:58:36.279Z,53.48
2018-06-04T10:01:04.574Z,53.28
2018-06-04T10:03:32.689Z,51.22
2018-06-04T10:06:01.082Z,51.71
2018-06-04T10:08:29.349Z,50.84
2018-06-04T10:10:57.613Z,51.35
2018-06-04T10:13:25.794Z,50.90
2018-06-04T10:15:54.651Z,50.20
2018-06-04T10:18:23.094Z,49.99
2018-06-04T10:20:51.227Z,49.97
2018-06-04T10:23:19.505Z,50.69
2018-06-04T10:25:47.788Z,49.40
2018-06-04T10:28:15.937Z,50.91
2018-06-04T10:30:44.332Z,50.02
2018-06-04T10:33:12.618Z,48.07
2018-06-04T10:35:40.820Z,48.82
2018-06-04T10:38:09.160Z,49.61
2018-06-04T10:40:37.449Z,50.99
2018-06-04T10:43:05.765Z,49.28
2018-06-04T10:45:33.947Z,49.33
2018-06-04T10:48:02.198Z,49.97
2018-06-04T10:50:30.339Z,49.46
2018-06-04T10:52:59.627Z,47.46
2018-06-04T10:55:27.832Z,49.19
2018-06-04T10:57:56.010Z,49.58
2018-06-04T11:00:24.365Z,50.03
2018-06-04T11:02:52.868Z,49.40
2018-06-04T11:05:21.094Z,51.40
2018-06-04T11:07:49.316Z,51.90
2018-06-04T11:10:17.598Z,49.00
2018-06-04T11:12:45.861Z,48.03
2018-06-04T11:15:14.098Z,48.47
2018-06-04T11:17:42.310Z,45.23
2018-06-04T11:20:10.459Z,45.74
2018-06-04T11:22:45.517Z,46.25
2018-06-04T11:25:13.835Z,46.44
2018-06-04T11:27:42.061Z,47.33
2018-06-04T11:30:10.300Z,47.41
2018-06-04T11:32:38.625Z,47.42
2018-06-04T11:35:06.810Z,45.86
2018-06-04T11:37:35.151Z,47.54
2018-06-04T11:40:04.314Z,47.56
2018-06-04T11:42:32.682Z,44.23
2018-06-04T11:45:01.043Z,46.75
2018-06-04T11:47:29.343Z,44.27
2018-06-04T11:49:57.498Z,45.14
2018-06-04T11:52:26.116Z,43.90
2018-06-04T11:54:54.213Z,43.39
2018-06-04T11:57:22.482Z,43.12
2018-06-04T11:59:50.693Z,43.02
2018-06-04T12:02:18.872Z,44.77
2018-06-04T12:04:46.982Z,44.11
2018-06-04T12:07:15.170Z,39.57
2018-06-04T12:09:43.372Z,40.58
2018-06-04T12:12:11.526Z,36.89
2018-06-04T12:14:39.697Z,37.15
2018-06-04T12:17:08.088Z,36.88
2018-06-04T12:19:36.216Z,36.86
2018-06-04T12:22:04.891Z,36.92
2018-06-04T12:24:33.048Z,36.61
2018-06-04T12:27:01.289Z,36.00
2018-06-04T12:29:29.483Z,36.37
2018-06-04T12:31:57.685Z,39.98
2018-06-04T12:34:26.070Z,40.42
2018-06-04T12:36:54.385Z,40.52
2018-06-04T12:39:22.486Z,42.47
2018-06-04T12:41:50.748Z,43.63
2018-06-04T12:44:19.006Z,44.12
2018-06-04T12:46:47.185Z,44.06
2018-06-04T12:49:15.462Z,44.43
2018-06-04T12:51:43.674Z,45.81
2018-06-04T12:54:12.462Z,43.29
2018-06-04T12:56:40.663Z,43.34
2018-06-04T12:59:09.240Z,45.38
2018-06-04T13:01:37.453Z,46.84
2018-06-04T13:04:05.802Z,45.52
2018-06-04T13:06:33.899Z,45.81
2018-06-04T13:09:02.801Z,46.92
2018-06-04T13:11:30.963Z,44.46
2018-06-04T13:13:59.163Z,43.44
2018-06-04T13:16:27.656Z,43.52
2018-06-04T13:18:55.951Z,43.19
2018-06-04T13:21:24.125Z,41.50
2018-06-04T13:23:52.305Z,41.92
2018-06-04T13:26:20.555Z,41.18
2018-06-04T13:28:48.787Z,39.84
2018-06-04T13:31:17.000Z,41.05
2018-06-04T13:33:45.285Z,40.84
2018-06-04T13:36:14.051Z,39.03
2018-06-04T13:38:42.224Z,40.81
2018-06-04T13:41:10.419Z,39.78
2018-06-04T13:43:38.593Z,39.24
2018-06-04T13:46:06.849Z,40.60
2018-06-04T13:48:35.036Z,41.73
2018-06-04T13:51:03.299Z,39.15
2018-06-04T13:53:31.572Z,40.93
2018-06-04T13:55:59.973Z,39.21
2018-06-04T13:58:28.243Z,40.69
2018-06-04T14:00:56.529Z,39.50
2018-06-04T14:03:24.676Z,40.24
2018-06-04T14:05:52.955Z,39.23
2018-06-04T14:08:21.360Z,38.21
2018-06-04T14:10:49.607Z,38.63
2018-06-04T14:13:17.882Z,38.06
2018-06-04T14:15:46.178Z,37.58
2018-06-04T14:18:15.057Z,36.47
2018-06-04T14:20:43.737Z,35.31
2018-06-04T14:23:11.912Z,37.03
2018-06-04T14:25:40.093Z,36.75
2018-06-04T14:28:08.973Z,35.95
2018-06-04T14:30:37.123Z,35.10
2018-06-04T14:33:05.353Z,35.75
2018-06-04T14:35:33.545Z,36.93
2018-06-04T14:38:01.786Z,36.40
2018-06-04T14:40:30.032Z,36.78
2018-06-04T14:42:58.200Z,36.56
2018-06-04T14:45:26.398Z,35.67
2018-06-04T14:47:54.456Z,36.81
2018-06-04T14:50:22.634Z,37.23
2018-06-04T14:52:50.929Z,36.78
2018-06-04T14:55:19.752Z,36.53
2018-06-04T14:57:48.083Z,36.42
2018-06-04T15:00:16.286Z,38.87
2018-06-04T15:02:44.458Z,37.96
2018-06-04T15:05:12.621Z,39.15
2018-06-04T15:07:40.864Z,37.41
2018-06-04T15:10:09.319Z,41.46
2018-06-04T15:12:37.530Z,42.55
2018-06-04T15:15:06.329Z,41.53
2018-06-04T15:17:34.587Z,41.90
2018-06-04T15:20:02.961Z,35.67
2018-06-04T15:22:31.148Z,37.52
2018-06-04T15:24:59.281Z,36.26
2018-06-04T15:27:27.495Z,38.79
2018-06-04T15:29:55.738Z,37.68
2018-06-04T15:32:24.305Z,36.66
2018-06-04T15:34:52.432Z,36.90
2018-06-04T15:37:21.193Z,36.31
2018-06-04T15:39:49.338Z,35.57
2018-06-04T15:42:17.577Z,35.11
2018-06-04T15:44:45.816Z,36.63
2018-06-04T15:47:14.075Z,35.82
2018-06-04T15:49:45.090Z,36.48
2018-06-04T15:52:13.266Z,38.33
2018-06-04T15:54:41.418Z,38.29
2018-06-04T15:57:09.647Z,36.46
2018-06-04T15:59:38.421Z,35.82
2018-06-04T16:02:06.674Z,35.53
2018-06-04T16:04:34.842Z,35.49
2018-06-04T16:07:02.879Z,35.60
2018-06-04T16:09:31.156Z,34.85
2018-06-04T16:12:00.164Z,35.66
2018-06-04T16:14:28.538Z,35.51
2018-06-04T16:16:56.766Z,35.64
2018-06-04T16:19:25.562Z,37.23
2018-06-04T16:21:53.761Z,36.23
2018-06-04T16:24:22.149Z,36.17
2018-06-04T16:26:50.368Z,35.83
2018-06-04T16:29:18.558Z,35.64
2018-06-04T16:31:46.847Z,35.46
2018-06-04T16:34:15.093Z,37.07
2018-06-04T16:36:43.574Z,35.77
2018-06-04T16:39:11.807Z,35.93
2018-06-04T16:41:40.076Z,35.24
2018-06-04T16:44:08.349Z,34.96
2018-06-04T16:46:36.543Z,35.34
2018-06-04T16:49:04.857Z,35.23
2018-06-04T16:51:33.051Z,35.71
2018-06-04T16:54:01.322Z,36.41
2018-06-04T16:56:30.344Z,37.85
2018-06-04T16:58:58.526Z,36.27
2018-06-04T17:01:26.738Z,38.78
2018-06-04T17:03:55.046Z,37.49
2018-06-04T17:06:23.179Z,37.21
2018-06-04T17:08:51.693Z,36.37
2018-06-04T17:11:20.042Z,37.77
2018-06-04T17:13:48.517Z,38.03
2018-06-04T17:16:16.981Z,37.88
2018-06-04T17:18:45.336Z,37.87
2018-06-04T17:21:16.749Z,37.26
2018-06-04T17:23:46.494Z,37.41
2018-06-04T17:26:14.983Z,37.87
2018-06-04T17:28:43.188Z,36.94
2018-06-04T17:31:11.354Z,39.04
2018-06-04T17:33:39.815Z,37.25
2018-06-04T17:36:08.357Z,37.86
2018-06-04T17:38:36.643Z,38.33
2018-06-04T17:41:05.080Z,38.76
2018-06-04T17:43:33.979Z,38.48
2018-06-04T17:46:02.255Z,37.93
2018-06-04T17:48:30.633Z,38.56
2018-06-04T17:50:58.874Z,38.72
2018-06-04T17:53:27.317Z,39.25
2018-06-04T17:55:55.811Z,39.57
2018-06-04T17:58:24.203Z,38.59
2018-06-04T18:00:52.559Z,39.13
2018-06-04T18:03:21.081Z,38.50
2018-06-04T18:05:49.721Z,39.55
2018-06-04T18:08:18.043Z,39.99
2018-06-04T18:10:46.374Z,40.47
2018-06-04T18:13:14.742Z,39.36
2018-06-04T18:15:43.455Z,38.95
2018-06-04T18:18:12.090Z,40.39
2018-06-04T18:20:40.579Z,39.47
2018-06-04T18:23:08.984Z,40.67
2018-06-04T18:25:37.478Z,41.91
2018-06-04T18:28:05.701Z,40.96
2018-06-04T18:30:34.000Z,40.23
2018-06-04T18:33:02.182Z,41.27
2018-06-04T18:35:30.376Z,40.92
2018-06-04T18:37:58.639Z,41.00
2018-06-04T18:40:27.163Z,40.93
2018-06-04T18:42:55.402Z,41.94
2018-06-04T18:45:23.798Z,43.02
2018-06-04T18:47:53.029Z,42.11
2018-06-04T18:50:21.386Z,43.89
2018-06-04T18:52:49.888Z,43.13
2018-06-04T18:55:18.299Z,43.34
2018-06-04T18:57:46.982Z,43.62
2018-06-04T19:00:15.263Z,43.73
2018-06-04T19:02:43.539Z,43.88
2018-06-04T19:05:11.865Z,43.70
2018-06-04T19:07:40.247Z,44.54
2018-06-04T19:10:08.575Z,45.08
2018-06-04T19:12:37.091Z,45.32
2018-06-04T19:15:06.171Z,46.06
2018-06-04T19:17:34.567Z,47.35
2018-06-04T19:20:03.125Z,47.81
2018-06-04T19:22:31.448Z,47.87
2018-06-04T19:25:00.047Z,48.21
2018-06-04T19:27:28.604Z,48.21
2018-06-04T19:29:56.978Z,48.86
2018-06-04T19:32:25.547Z,48.57
2018-06-04T19:34:53.920Z,49.08
2018-06-04T19:37:22.402Z,48.99
2018-06-04T19:39:50.683Z,49.43
2018-06-04T19:42:19.218Z,49.17
2018-06-04T19:44:47.661Z,49.38
2018-06-04T19:47:15.997Z,50.25
2018-06-04T19:49:44.278Z,50.61
2018-06-04T19:52:12.642Z,52.44
2018-06-04T19:54:40.943Z,51.82
2018-06-04T19:57:09.402Z,52.96
2018-06-04T19:59:38.183Z,53.02
2018-06-04T20:02:06.608Z,53.58
2018-06-04T20:04:34.861Z,53.62
2018-06-04T20:07:08.938Z,53.82
2018-06-04T20:09:37.250Z,53.14
2018-06-04T20:12:05.562Z,52.65
2018-06-04T20:14:33.950Z,52.67
2018-06-04T20:17:02.369Z,52.55
2018-06-04T20:19:30.510Z,52.47
2018-06-04T20:21:58.886Z,53.02
2018-06-04T20:24:27.094Z,53.14
2018-06-04T20:26:55.396Z,52.75
2018-06-04T20:29:23.585Z,52.54
2018-06-04T20:31:51.812Z,53.09
2018-06-04T20:34:20.109Z,53.30
2018-06-04T20:36:48.845Z,52.38
2018-06-04T20:39:17.083Z,53.10
2018-06-04T20:41:45.310Z,53.84
2018-06-04T20:44:13.530Z,53.48
2018-06-04T20:46:41.841Z,54.10
2018-06-04T20:49:10.484Z,51.83
2018-06-04T20:51:38.705Z,52.12
2018-06-04T20:54:06.879Z,52.55
2018-06-04T20:56:35.259Z,51.78
2018-06-04T20:59:03.690Z,50.69
2018-06-04T21:01:32.001Z,50.95
2018-06-04T21:04:00.170Z,50.45
2018-06-04T21:06:28.356Z,49.62
2018-06-04T21:08:56.609Z,50.53
2018-06-04T21:11:24.750Z,49.93
2018-06-04T21:13:53.292Z,52.06
2018-06-04T21:16:21.454Z,53.34
2018-06-04T21:18:50.297Z,53.63
2018-06-04T21:21:18.523Z,54.25
2018-06-04T21:23:46.764Z,53.21
2018-06-04T21:26:14.978Z,53.56
2018-06-04T21:28:43.257Z,53.81
2018-06-04T21:31:11.461Z,53.34
2018-06-04T21:33:39.727Z,51.94
2018-06-04T21:36:08.072Z,53.32
2018-06-04T21:38:36.342Z,53.29
2018-06-04T21:41:04.641Z,54.14
2018-06-04T21:43:32.872Z,52.19
2018-06-04T21:46:01.088Z,54.81
2018-06-04T21:48:29.300Z,55.40
2018-06-04T21:50:57.632Z,53.47
2018-06-04T21:53:25.803Z,54.77
2018-06-04T21:55:55.031Z,52.53
2018-06-04T21:58:23.234Z,53.93
2018-06-04T22:00:51.705Z,54.25
2018-06-04T22:03:19.917Z,53.43
2018-06-04T22:05:48.041Z,55.14
2018-06-04T22:08:16.190Z,56.55
2018-06-04T22:10:44.563Z,53.71
2018-06-04T22:13:12.750Z,55.22
2018-06-04T22:15:41.089Z,53.57
2018-06-04T22:18:09.218Z,55.30
2018-06-04T22:20:37.426Z,54.14
2018-06-04T22:23:05.929Z,53.18
2018-06-04T22:25:34.198Z,54.71
2018-06-04T22:28:02.331Z,51.67
2018-06-04T22:30:30.469Z,50.97
2018-06-04T22:32:59.036Z,51.14
2018-06-04T22:35:27.250Z,52.41
2018-06-04T22:37:55.394Z,52.76
2018-06-04T22:40:23.536Z,51.39
2018-06-04T22:42:53.414Z,51.92
2018-06-04T22:45:21.609Z,51.90
2018-06-04T22:47:49.730Z,51.08
2018-06-04T22:50:17.862Z,51.53
2018-06-04T22:52:46.039Z,50.89
2018-06-04T22:55:14.147Z,51.01
2018-06-04T22:57:42.309Z,50.84
2018-06-04T23:00:23.185Z,51.25
2018-06-04T23:02:51.316Z,52.25
2018-06-04T23:05:19.428Z,51.44
2018-06-04T23:07:47.703Z,52.19
2018-06-04T23:10:15.961Z,51.83
2018-06-04T23:12:44.165Z,52.06
2018-06-04T23:15:13.153Z,51.84
2018-06-04T23:17:41.220Z,52.84
2018-06-04T23:20:09.393Z,52.81
2018-06-04T23:22:37.526Z,52.22
2018-06-04T23:25:05.699Z,52.51
2018-06-04T23:27:33.767Z,51.21
2018-06-04T23:30:03.176Z,51.75
2018-06-04T23:32:31.247Z,52.25
2018-06-04T23:34:59.311Z,52.25
2018-06-04T23:37:27.448Z,52.04
2018-06-04T23:39:58.894Z,52.22
2018-06-04T23:42:26.950Z,52.94
2018-06-04T23:44:55.061Z,53.24
2018-06-04T23:47:23.189Z,53.80
2018-06-04T23:49:58.855Z,52.53
2018-06-04T23:52:27.016Z,53.08
2018-06-04T23:54:55.150Z,53.64
2018-06-04T23:57:23.293Z,52.72
2018-06-04T23:59:51.431Z,53.18
